sensor_id;sensor_type;location;lat;lon;timestamp;P1;durP1;ratioP1;P2;durP2;ratioP2
31087;SDS011;17745;55.914;37.554;2023-02-11T00:00:47;22.17;;;9.73;;
31087;SDS011;17745;55.914;37.554;2023-02-11T00:03:15;21.80;;;11.70;;
31087;SDS011;17745;55.914;37.554;2023-02-11T00:05:44;17.90;;;9.63;;
31087;SDS011;17745;55.914;37.554;2023-02-11T00:08:12;21.83;;;10.88;;
31087;SDS011;17745;55.914;37.554;2023-02-11T00:10:42;25.75;;;10.73;;
31087;SDS011;17745;55.914;37.554;2023-02-11T00:13:12;19.05;;;10.57;;
31087;SDS011;17745;55.914;37.554;2023-02-11T00:15:40;20.67;;;10.57;;
31087;SDS011;17745;55.914;37.554;2023-02-11T00:18:09;21.73;;;9.85;;
31087;SDS011;17745;55.914;37.554;2023-02-11T00:20:39;20.10;;;10.05;;
31087;SDS011;17745;55.914;37.554;2023-02-11T00:23:14;18.00;;;10.38;;
31087;SDS011;17745;55.914;37.554;2023-02-11T00:25:45;17.15;;;9.77;;
31087;SDS011;17745;55.914;37.554;2023-02-11T00:28:14;20.17;;;11.05;;
31087;SDS011;17745;55.914;37.554;2023-02-11T00:30:53;19.23;;;10.10;;
31087;SDS011;17745;55.914;37.554;2023-02-11T00:33:28;15.30;;;8.63;;
31087;SDS011;17745;55.914;37.554;2023-02-11T00:36:18;16.60;;;9.48;;
31087;SDS011;17745;55.914;37.554;2023-02-11T00:42:06;25.58;;;10.15;;
31087;SDS011;17745;55.914;37.554;2023-02-11T00:44:35;14.95;;;9.00;;
31087;SDS011;17745;55.914;37.554;2023-02-11T00:47:06;18.65;;;9.77;;
31087;SDS011;17745;55.914;37.554;2023-02-11T00:49:36;19.67;;;9.18;;
31087;SDS011;17745;55.914;37.554;2023-02-11T00:52:06;17.55;;;8.40;;
31087;SDS011;17745;55.914;37.554;2023-02-11T00:54:36;19.92;;;8.82;;
31087;SDS011;17745;55.914;37.554;2023-02-11T00:57:17;18.80;;;9.35;;
31087;SDS011;17745;55.914;37.554;2023-02-11T00:59:54;20.92;;;9.90;;
31087;SDS011;17745;55.914;37.554;2023-02-11T01:02:25;16.33;;;9.63;;
31087;SDS011;17745;55.914;37.554;2023-02-11T01:04:54;17.40;;;9.50;;
31087;SDS011;17745;55.914;37.554;2023-02-11T01:07:28;14.77;;;8.55;;
31087;SDS011;17745;55.914;37.554;2023-02-11T01:09:57;21.95;;;8.25;;
31087;SDS011;17745;55.914;37.554;2023-02-11T01:12:37;18.40;;;8.70;;
31087;SDS011;17745;55.914;37.554;2023-02-11T01:15:12;18.12;;;8.65;;
31087;SDS011;17745;55.914;37.554;2023-02-11T01:17:48;16.20;;;8.18;;
31087;SDS011;17745;55.914;37.554;2023-02-11T01:20:19;19.80;;;8.35;;
31087;SDS011;17745;55.914;37.554;2023-02-11T01:23:08;16.33;;;8.40;;
31087;SDS011;17745;55.914;37.554;2023-02-11T01:25:42;14.70;;;8.80;;
31087;SDS011;17745;55.914;37.554;2023-02-11T01:28:22;13.23;;;7.45;;
31087;SDS011;17745;55.914;37.554;2023-02-11T01:30:52;22.52;;;9.65;;
31087;SDS011;17745;55.914;37.554;2023-02-11T01:33:21;19.87;;;8.38;;
31087;SDS011;17745;55.914;37.554;2023-02-11T01:35:49;14.50;;;6.82;;
31087;SDS011;17745;55.914;37.554;2023-02-11T01:38:18;14.75;;;8.85;;
31087;SDS011;17745;55.914;37.554;2023-02-11T01:40:48;15.55;;;7.97;;
31087;SDS011;17745;55.914;37.554;2023-02-11T01:43:16;18.33;;;8.45;;
31087;SDS011;17745;55.914;37.554;2023-02-11T01:48:39;15.13;;;7.43;;
31087;SDS011;17745;55.914;37.554;2023-02-11T01:51:10;16.48;;;7.87;;
31087;SDS011;17745;55.914;37.554;2023-02-11T01:53:43;21.12;;;7.90;;
31087;SDS011;17745;55.914;37.554;2023-02-11T01:56:29;13.43;;;6.55;;
31087;SDS011;17745;55.914;37.554;2023-02-11T01:59:26;15.40;;;7.43;;
31087;SDS011;17745;55.914;37.554;2023-02-11T02:02:01;12.73;;;7.55;;
31087;SDS011;17745;55.914;37.554;2023-02-11T02:04:37;20.12;;;7.45;;
31087;SDS011;17745;55.914;37.554;2023-02-11T02:07:09;14.65;;;7.57;;
31087;SDS011;17745;55.914;37.554;2023-02-11T02:09:40;19.50;;;7.05;;
31087;SDS011;17745;55.914;37.554;2023-02-11T02:12:11;15.57;;;7.93;;
31087;SDS011;17745;55.914;37.554;2023-02-11T02:14:39;13.98;;;6.37;;
31087;SDS011;17745;55.914;37.554;2023-02-11T02:17:14;13.15;;;7.25;;
31087;SDS011;17745;55.914;37.554;2023-02-11T02:20:09;12.40;;;6.68;;
31087;SDS011;17745;55.914;37.554;2023-02-11T02:25:51;16.50;;;6.03;;
31087;SDS011;17745;55.914;37.554;2023-02-11T02:28:53;10.57;;;4.80;;
31087;SDS011;17745;55.914;37.554;2023-02-11T02:31:51;14.13;;;5.85;;
31087;SDS011;17745;55.914;37.554;2023-02-11T02:34:34;16.40;;;6.00;;
31087;SDS011;17745;55.914;37.554;2023-02-11T02:37:06;12.75;;;5.80;;
31087;SDS011;17745;55.914;37.554;2023-02-11T02:39:37;11.38;;;5.40;;
31087;SDS011;17745;55.914;37.554;2023-02-11T02:42:05;14.90;;;6.10;;
31087;SDS011;17745;55.914;37.554;2023-02-11T02:44:34;11.30;;;5.28;;
31087;SDS011;17745;55.914;37.554;2023-02-11T02:47:02;11.40;;;6.20;;
31087;SDS011;17745;55.914;37.554;2023-02-11T02:49:30;14.10;;;6.05;;
31087;SDS011;17745;55.914;37.554;2023-02-11T02:52:02;14.02;;;6.05;;
31087;SDS011;17745;55.914;37.554;2023-02-11T02:54:45;11.27;;;5.22;;
31087;SDS011;17745;55.914;37.554;2023-02-11T02:57:28;9.48;;;4.85;;
31087;SDS011;17745;55.914;37.554;2023-02-11T03:00:07;13.65;;;5.70;;
31087;SDS011;17745;55.914;37.554;2023-02-11T03:02:46;12.13;;;6.15;;
31087;SDS011;17745;55.914;37.554;2023-02-11T03:05:26;17.23;;;5.90;;
31087;SDS011;17745;55.914;37.554;2023-02-11T03:10:34;12.65;;;5.15;;
31087;SDS011;17745;55.914;37.554;2023-02-11T03:13:04;9.38;;;5.35;;
31087;SDS011;17745;55.914;37.554;2023-02-11T03:15:35;15.88;;;5.85;;
31087;SDS011;17745;55.914;37.554;2023-02-11T03:18:05;8.85;;;5.40;;
31087;SDS011;17745;55.914;37.554;2023-02-11T03:20:37;12.65;;;5.72;;
31087;SDS011;17745;55.914;37.554;2023-02-11T03:23:10;8.77;;;5.55;;
31087;SDS011;17745;55.914;37.554;2023-02-11T03:25:43;11.45;;;5.80;;
31087;SDS011;17745;55.914;37.554;2023-02-11T03:28:17;14.23;;;6.43;;
31087;SDS011;17745;55.914;37.554;2023-02-11T03:30:53;14.00;;;5.62;;
31087;SDS011;17745;55.914;37.554;2023-02-11T03:33:24;14.48;;;6.65;;
31087;SDS011;17745;55.914;37.554;2023-02-11T03:35:57;11.63;;;5.62;;
31087;SDS011;17745;55.914;37.554;2023-02-11T03:38:32;12.77;;;6.53;;
31087;SDS011;17745;55.914;37.554;2023-02-11T03:41:04;14.65;;;6.32;;
31087;SDS011;17745;55.914;37.554;2023-02-11T03:43:36;14.87;;;6.75;;
31087;SDS011;17745;55.914;37.554;2023-02-11T03:46:08;11.95;;;5.78;;
31087;SDS011;17745;55.914;37.554;2023-02-11T03:48:38;14.65;;;5.75;;
31087;SDS011;17745;55.914;37.554;2023-02-11T03:51:10;14.40;;;6.07;;
31087;SDS011;17745;55.914;37.554;2023-02-11T03:53:42;12.30;;;5.82;;
31087;SDS011;17745;55.914;37.554;2023-02-11T03:56:14;13.35;;;4.97;;
31087;SDS011;17745;55.914;37.554;2023-02-11T03:58:43;14.63;;;5.00;;
31087;SDS011;17745;55.914;37.554;2023-02-11T04:01:11;11.15;;;5.28;;
31087;SDS011;17745;55.914;37.554;2023-02-11T04:03:39;15.07;;;5.68;;
31087;SDS011;17745;55.914;37.554;2023-02-11T04:06:07;9.65;;;4.93;;
31087;SDS011;17745;55.914;37.554;2023-02-11T04:08:35;16.70;;;6.20;;
31087;SDS011;17745;55.914;37.554;2023-02-11T04:11:04;9.68;;;4.82;;
31087;SDS011;17745;55.914;37.554;2023-02-11T04:13:32;13.15;;;5.80;;
31087;SDS011;17745;55.914;37.554;2023-02-11T04:15:59;14.90;;;5.53;;
31087;SDS011;17745;55.914;37.554;2023-02-11T04:18:27;14.43;;;5.10;;
31087;SDS011;17745;55.914;37.554;2023-02-11T04:20:55;10.60;;;5.20;;
31087;SDS011;17745;55.914;37.554;2023-02-11T04:23:22;15.32;;;5.47;;
31087;SDS011;17745;55.914;37.554;2023-02-11T04:25:51;10.68;;;4.95;;
31087;SDS011;17745;55.914;37.554;2023-02-11T04:28:20;10.50;;;4.57;;
31087;SDS011;17745;55.914;37.554;2023-02-11T04:30:51;9.93;;;5.18;;
31087;SDS011;17745;55.914;37.554;2023-02-11T04:33:18;10.18;;;4.75;;
31087;SDS011;17745;55.914;37.554;2023-02-11T04:35:48;7.20;;;4.12;;
31087;SDS011;17745;55.914;37.554;2023-02-11T04:38:16;10.13;;;4.50;;
31087;SDS011;17745;55.914;37.554;2023-02-11T04:40:44;14.73;;;5.07;;
31087;SDS011;17745;55.914;37.554;2023-02-11T04:43:13;12.43;;;4.68;;
31087;SDS011;17745;55.914;37.554;2023-02-11T04:45:43;7.93;;;4.55;;
31087;SDS011;17745;55.914;37.554;2023-02-11T04:48:11;11.27;;;4.82;;
31087;SDS011;17745;55.914;37.554;2023-02-11T04:50:39;15.07;;;5.28;;
31087;SDS011;17745;55.914;37.554;2023-02-11T04:53:07;12.82;;;5.18;;
31087;SDS011;17745;55.914;37.554;2023-02-11T04:55:35;10.88;;;4.65;;
31087;SDS011;17745;55.914;37.554;2023-02-11T04:58:03;10.57;;;4.90;;
31087;SDS011;17745;55.914;37.554;2023-02-11T05:00:31;9.35;;;4.70;;
31087;SDS011;17745;55.914;37.554;2023-02-11T05:03:01;12.20;;;4.87;;
31087;SDS011;17745;55.914;37.554;2023-02-11T05:05:29;9.55;;;4.87;;
31087;SDS011;17745;55.914;37.554;2023-02-11T05:07:57;11.65;;;4.82;;
31087;SDS011;17745;55.914;37.554;2023-02-11T05:10:24;10.48;;;4.90;;
31087;SDS011;17745;55.914;37.554;2023-02-11T05:12:53;9.27;;;4.62;;
31087;SDS011;17745;55.914;37.554;2023-02-11T05:15:21;8.63;;;4.60;;
31087;SDS011;17745;55.914;37.554;2023-02-11T05:17:49;8.82;;;4.87;;
31087;SDS011;17745;55.914;37.554;2023-02-11T05:20:18;9.48;;;5.05;;
31087;SDS011;17745;55.914;37.554;2023-02-11T05:22:47;13.88;;;5.03;;
31087;SDS011;17745;55.914;37.554;2023-02-11T05:25:14;13.88;;;5.55;;
31087;SDS011;17745;55.914;37.554;2023-02-11T05:27:42;11.80;;;4.70;;
31087;SDS011;17745;55.914;37.554;2023-02-11T05:30:11;8.57;;;5.00;;
31087;SDS011;17745;55.914;37.554;2023-02-11T05:32:39;9.07;;;4.70;;
31087;SDS011;17745;55.914;37.554;2023-02-11T05:35:08;7.93;;;5.10;;
31087;SDS011;17745;55.914;37.554;2023-02-11T05:37:39;11.77;;;4.65;;
31087;SDS011;17745;55.914;37.554;2023-02-11T05:40:06;12.05;;;4.90;;
31087;SDS011;17745;55.914;37.554;2023-02-11T05:42:35;10.25;;;4.45;;
31087;SDS011;17745;55.914;37.554;2023-02-11T05:45:04;10.65;;;4.60;;
31087;SDS011;17745;55.914;37.554;2023-02-11T05:47:32;9.55;;;4.80;;
31087;SDS011;17745;55.914;37.554;2023-02-11T05:50:00;12.07;;;5.47;;
31087;SDS011;17745;55.914;37.554;2023-02-11T05:52:30;10.98;;;4.97;;
31087;SDS011;17745;55.914;37.554;2023-02-11T05:57:54;15.70;;;5.15;;
31087;SDS011;17745;55.914;37.554;2023-02-11T06:00:24;10.20;;;4.28;;
31087;SDS011;17745;55.914;37.554;2023-02-11T06:02:59;11.45;;;5.30;;
31087;SDS011;17745;55.914;37.554;2023-02-11T06:05:30;7.55;;;4.50;;
31087;SDS011;17745;55.914;37.554;2023-02-11T06:08:08;9.57;;;4.50;;
31087;SDS011;17745;55.914;37.554;2023-02-11T06:10:46;12.00;;;4.75;;
31087;SDS011;17745;55.914;37.554;2023-02-11T06:13:15;11.45;;;5.00;;
31087;SDS011;17745;55.914;37.554;2023-02-11T06:15:43;12.68;;;4.95;;
31087;SDS011;17745;55.914;37.554;2023-02-11T06:18:12;13.23;;;5.62;;
31087;SDS011;17745;55.914;37.554;2023-02-11T06:20:40;16.02;;;5.37;;
31087;SDS011;17745;55.914;37.554;2023-02-11T06:23:09;10.85;;;4.87;;
31087;SDS011;17745;55.914;37.554;2023-02-11T06:25:37;12.85;;;4.85;;
31087;SDS011;17745;55.914;37.554;2023-02-11T06:28:07;12.60;;;5.10;;
31087;SDS011;17745;55.914;37.554;2023-02-11T06:30:35;12.15;;;4.87;;
31087;SDS011;17745;55.914;37.554;2023-02-11T06:33:03;12.15;;;4.93;;
31087;SDS011;17745;55.914;37.554;2023-02-11T06:35:33;11.15;;;5.05;;
31087;SDS011;17745;55.914;37.554;2023-02-11T06:38:01;9.13;;;5.03;;
31087;SDS011;17745;55.914;37.554;2023-02-11T06:40:29;12.18;;;5.72;;
31087;SDS011;17745;55.914;37.554;2023-02-11T06:42:57;8.70;;;4.90;;
31087;SDS011;17745;55.914;37.554;2023-02-11T06:45:29;9.70;;;5.15;;
31087;SDS011;17745;55.914;37.554;2023-02-11T06:47:59;11.40;;;5.50;;
31087;SDS011;17745;55.914;37.554;2023-02-11T06:50:43;9.27;;;4.85;;
31087;SDS011;17745;55.914;37.554;2023-02-11T06:53:13;10.63;;;4.75;;
31087;SDS011;17745;55.914;37.554;2023-02-11T06:55:41;10.82;;;5.28;;
31087;SDS011;17745;55.914;37.554;2023-02-11T06:58:09;9.52;;;4.85;;
31087;SDS011;17745;55.914;37.554;2023-02-11T07:00:43;14.68;;;5.03;;
31087;SDS011;17745;55.914;37.554;2023-02-11T07:03:11;14.13;;;5.85;;
31087;SDS011;17745;55.914;37.554;2023-02-11T07:05:41;16.75;;;5.30;;
31087;SDS011;17745;55.914;37.554;2023-02-11T07:08:09;13.52;;;5.35;;
31087;SDS011;17745;55.914;37.554;2023-02-11T07:10:37;8.55;;;5.32;;
31087;SDS011;17745;55.914;37.554;2023-02-11T07:13:06;11.35;;;5.32;;
31087;SDS011;17745;55.914;37.554;2023-02-11T07:15:36;11.80;;;5.45;;
31087;SDS011;17745;55.914;37.554;2023-02-11T07:18:06;12.23;;;5.05;;
31087;SDS011;17745;55.914;37.554;2023-02-11T07:20:35;9.73;;;4.65;;
31087;SDS011;17745;55.914;37.554;2023-02-11T07:23:03;9.45;;;5.40;;
31087;SDS011;17745;55.914;37.554;2023-02-11T07:25:31;11.77;;;5.40;;
31087;SDS011;17745;55.914;37.554;2023-02-11T07:28:03;11.20;;;5.00;;
31087;SDS011;17745;55.914;37.554;2023-02-11T07:30:32;15.00;;;4.87;;
31087;SDS011;17745;55.914;37.554;2023-02-11T07:33:00;14.45;;;5.07;;
31087;SDS011;17745;55.914;37.554;2023-02-11T07:35:29;10.13;;;5.18;;
31087;SDS011;17745;55.914;37.554;2023-02-11T07:38:01;12.23;;;5.43;;
31087;SDS011;17745;55.914;37.554;2023-02-11T07:40:29;13.18;;;5.07;;
31087;SDS011;17745;55.914;37.554;2023-02-11T07:42:59;12.57;;;5.35;;
31087;SDS011;17745;55.914;37.554;2023-02-11T07:45:27;13.38;;;6.22;;
31087;SDS011;17745;55.914;37.554;2023-02-11T07:47:55;15.75;;;6.70;;
31087;SDS011;17745;55.914;37.554;2023-02-11T07:50:23;16.40;;;6.62;;
31087;SDS011;17745;55.914;37.554;2023-02-11T07:52:53;15.77;;;6.32;;
31087;SDS011;17745;55.914;37.554;2023-02-11T07:55:21;12.05;;;5.72;;
31087;SDS011;17745;55.914;37.554;2023-02-11T07:57:52;18.17;;;5.45;;
31087;SDS011;17745;55.914;37.554;2023-02-11T08:00:19;12.55;;;5.78;;
31087;SDS011;17745;55.914;37.554;2023-02-11T08:02:48;14.55;;;6.35;;
31087;SDS011;17745;55.914;37.554;2023-02-11T08:05:18;13.68;;;6.28;;
31087;SDS011;17745;55.914;37.554;2023-02-11T08:07:49;17.17;;;7.20;;
31087;SDS011;17745;55.914;37.554;2023-02-11T08:10:24;20.55;;;6.18;;
31087;SDS011;17745;55.914;37.554;2023-02-11T08:13:00;17.20;;;6.20;;
31087;SDS011;17745;55.914;37.554;2023-02-11T08:15:50;14.77;;;6.35;;
31087;SDS011;17745;55.914;37.554;2023-02-11T08:18:19;20.70;;;7.32;;
31087;SDS011;17745;55.914;37.554;2023-02-11T08:20:48;17.55;;;6.68;;
31087;SDS011;17745;55.914;37.554;2023-02-11T08:23:16;15.40;;;7.53;;
31087;SDS011;17745;55.914;37.554;2023-02-11T08:25:48;15.38;;;6.90;;
31087;SDS011;17745;55.914;37.554;2023-02-11T08:28:17;17.70;;;7.15;;
31087;SDS011;17745;55.914;37.554;2023-02-11T08:30:51;12.68;;;6.18;;
31087;SDS011;17745;55.914;37.554;2023-02-11T08:33:22;18.77;;;8.07;;
31087;SDS011;17745;55.914;37.554;2023-02-11T08:35:50;14.10;;;6.53;;
31087;SDS011;17745;55.914;37.554;2023-02-11T08:38:19;17.87;;;7.55;;
31087;SDS011;17745;55.914;37.554;2023-02-11T08:40:59;13.20;;;6.80;;
31087;SDS011;17745;55.914;37.554;2023-02-11T08:43:29;16.17;;;8.23;;
31087;SDS011;17745;55.914;37.554;2023-02-11T08:46:08;21.20;;;8.30;;
31087;SDS011;17745;55.914;37.554;2023-02-11T08:48:42;17.25;;;7.05;;
31087;SDS011;17745;55.914;37.554;2023-02-11T08:51:51;15.38;;;7.25;;
31087;SDS011;17745;55.914;37.554;2023-02-11T08:54:36;15.60;;;7.78;;
31087;SDS011;17745;55.914;37.554;2023-02-11T09:00:08;15.35;;;7.40;;
31087;SDS011;17745;55.914;37.554;2023-02-11T09:05:23;11.00;;;7.30;;
31087;SDS011;17745;55.914;37.554;2023-02-11T09:07:56;17.95;;;6.32;;
31087;SDS011;17745;55.914;37.554;2023-02-11T09:10:41;16.87;;;7.87;;
31087;SDS011;17745;55.914;37.554;2023-02-11T09:16:46;20.65;;;7.85;;
31087;SDS011;17745;55.914;37.554;2023-02-11T09:19:33;13.25;;;7.12;;
31087;SDS011;17745;55.914;37.554;2023-02-11T09:22:38;9.38;;;5.65;;
31087;SDS011;17745;55.914;37.554;2023-02-11T09:25:32;16.20;;;7.20;;
31087;SDS011;17745;55.914;37.554;2023-02-11T09:28:17;17.87;;;7.20;;
31087;SDS011;17745;55.914;37.554;2023-02-11T09:34:25;17.95;;;6.53;;
31087;SDS011;17745;55.914;37.554;2023-02-11T09:37:06;17.70;;;7.37;;
31087;SDS011;17745;55.914;37.554;2023-02-11T09:40:11;24.70;;;6.87;;
31087;SDS011;17745;55.914;37.554;2023-02-11T09:43:31;19.85;;;7.10;;
31087;SDS011;17745;55.914;37.554;2023-02-11T09:46:48;13.90;;;7.18;;
31087;SDS011;17745;55.914;37.554;2023-02-11T09:49:29;11.35;;;6.70;;
31087;SDS011;17745;55.914;37.554;2023-02-11T09:52:07;11.48;;;7.18;;
31087;SDS011;17745;55.914;37.554;2023-02-11T09:55:14;13.90;;;8.23;;
31087;SDS011;17745;55.914;37.554;2023-02-11T09:57:49;19.50;;;7.65;;
31087;SDS011;17745;55.914;37.554;2023-02-11T10:00:21;16.42;;;7.55;;
31087;SDS011;17745;55.914;37.554;2023-02-11T10:02:58;19.17;;;9.30;;
31087;SDS011;17745;55.914;37.554;2023-02-11T10:09:00;18.65;;;7.50;;
31087;SDS011;17745;55.914;37.554;2023-02-11T10:11:46;17.45;;;6.68;;
31087;SDS011;17745;55.914;37.554;2023-02-11T10:14:40;18.50;;;7.10;;
31087;SDS011;17745;55.914;37.554;2023-02-11T10:18:09;15.70;;;7.07;;
31087;SDS011;17745;55.914;37.554;2023-02-11T10:29:29;11.43;;;6.78;;
31087;SDS011;17745;55.914;37.554;2023-02-11T10:32:23;21.25;;;6.75;;
31087;SDS011;17745;55.914;37.554;2023-02-11T10:35:19;12.30;;;7.25;;
31087;SDS011;17745;55.914;37.554;2023-02-11T10:38:26;13.30;;;6.68;;
31087;SDS011;17745;55.914;37.554;2023-02-11T10:40:59;15.25;;;6.40;;
31087;SDS011;17745;55.914;37.554;2023-02-11T10:43:35;17.30;;;7.20;;
31087;SDS011;17745;55.914;37.554;2023-02-11T10:46:05;13.90;;;7.22;;
31087;SDS011;17745;55.914;37.554;2023-02-11T10:48:45;13.93;;;6.85;;
31087;SDS011;17745;55.914;37.554;2023-02-11T10:51:17;12.73;;;6.90;;
31087;SDS011;17745;55.914;37.554;2023-02-11T10:54:19;22.00;;;9.43;;
31087;SDS011;17745;55.914;37.554;2023-02-11T10:56:57;18.10;;;8.32;;
31087;SDS011;17745;55.914;37.554;2023-02-11T10:59:29;17.73;;;7.70;;
31087;SDS011;17745;55.914;37.554;2023-02-11T11:02:17;16.15;;;7.37;;
31087;SDS011;17745;55.914;37.554;2023-02-11T11:04:54;23.65;;;8.73;;
31087;SDS011;17745;55.914;37.554;2023-02-11T11:07:29;14.85;;;7.95;;
31087;SDS011;17745;55.914;37.554;2023-02-11T11:10:06;22.17;;;8.75;;
31087;SDS011;17745;55.914;37.554;2023-02-11T11:12:52;20.52;;;8.68;;
31087;SDS011;17745;55.914;37.554;2023-02-11T11:15:23;15.73;;;8.38;;
31087;SDS011;17745;55.914;37.554;2023-02-11T11:20:42;17.90;;;8.65;;
31087;SDS011;17745;55.914;37.554;2023-02-11T11:23:22;17.83;;;8.73;;
31087;SDS011;17745;55.914;37.554;2023-02-11T11:26:05;16.77;;;8.88;;
31087;SDS011;17745;55.914;37.554;2023-02-11T11:28:37;13.00;;;7.70;;
31087;SDS011;17745;55.914;37.554;2023-02-11T11:31:11;15.60;;;8.63;;
31087;SDS011;17745;55.914;37.554;2023-02-11T11:33:43;21.50;;;9.02;;
31087;SDS011;17745;55.914;37.554;2023-02-11T11:36:14;20.55;;;9.10;;
31087;SDS011;17745;55.914;37.554;2023-02-11T11:38:48;21.00;;;9.30;;
31087;SDS011;17745;55.914;37.554;2023-02-11T11:41:24;16.90;;;8.90;;
31087;SDS011;17745;55.914;37.554;2023-02-11T11:44:00;16.40;;;7.95;;
31087;SDS011;17745;55.914;37.554;2023-02-11T11:46:31;19.08;;;8.55;;
31087;SDS011;17745;55.914;37.554;2023-02-11T11:49:16;21.23;;;9.73;;
31087;SDS011;17745;55.914;37.554;2023-02-11T11:51:55;14.85;;;8.63;;
31087;SDS011;17745;55.914;37.554;2023-02-11T11:54:30;21.20;;;9.23;;
31087;SDS011;17745;55.914;37.554;2023-02-11T11:57:03;21.35;;;8.55;;
31087;SDS011;17745;55.914;37.554;2023-02-11T11:59:37;20.42;;;9.55;;
31087;SDS011;17745;55.914;37.554;2023-02-11T12:02:10;17.42;;;8.30;;
31087;SDS011;17745;55.914;37.554;2023-02-11T12:05:02;19.65;;;8.90;;
31087;SDS011;17745;55.914;37.554;2023-02-11T12:07:38;15.07;;;8.00;;
31087;SDS011;17745;55.914;37.554;2023-02-11T12:10:24;18.08;;;8.15;;
31087;SDS011;17745;55.914;37.554;2023-02-11T12:13:14;18.17;;;7.93;;
31087;SDS011;17745;55.914;37.554;2023-02-11T12:15:54;17.80;;;9.13;;
31087;SDS011;17745;55.914;37.554;2023-02-11T12:18:34;21.83;;;8.88;;
31087;SDS011;17745;55.914;37.554;2023-02-11T12:21:17;12.93;;;7.32;;
31087;SDS011;17745;55.914;37.554;2023-02-11T12:23:59;18.60;;;9.60;;
31087;SDS011;17745;55.914;37.554;2023-02-11T12:26:40;20.08;;;9.77;;
31087;SDS011;17745;55.914;37.554;2023-02-11T12:29:26;16.60;;;9.85;;
31087;SDS011;17745;55.914;37.554;2023-02-11T12:32:09;15.60;;;9.15;;
31087;SDS011;17745;55.914;37.554;2023-02-11T12:34:52;23.92;;;9.18;;
31087;SDS011;17745;55.914;37.554;2023-02-11T12:37:43;18.83;;;9.13;;
31087;SDS011;17745;55.914;37.554;2023-02-11T12:40:25;16.85;;;8.63;;
31087;SDS011;17745;55.914;37.554;2023-02-11T12:43:09;18.62;;;9.30;;
31087;SDS011;17745;55.914;37.554;2023-02-11T12:45:55;17.95;;;9.05;;
31087;SDS011;17745;55.914;37.554;2023-02-11T12:49:02;19.98;;;9.90;;
31087;SDS011;17745;55.914;37.554;2023-02-11T12:51:49;19.58;;;8.75;;
31087;SDS011;17745;55.914;37.554;2023-02-11T12:54:32;15.93;;;8.60;;
31087;SDS011;17745;55.914;37.554;2023-02-11T12:57:06;22.00;;;9.35;;
31087;SDS011;17745;55.914;37.554;2023-02-11T12:59:46;14.77;;;8.52;;
31087;SDS011;17745;55.914;37.554;2023-02-11T13:02:25;17.67;;;8.73;;
31087;SDS011;17745;55.914;37.554;2023-02-11T13:05:03;19.33;;;10.05;;
31087;SDS011;17745;55.914;37.554;2023-02-11T13:07:38;19.50;;;10.32;;
31087;SDS011;17745;55.914;37.554;2023-02-11T13:12:49;21.52;;;9.60;;
31087;SDS011;17745;55.914;37.554;2023-02-11T13:15:36;19.40;;;9.27;;
31087;SDS011;17745;55.914;37.554;2023-02-11T13:18:11;18.35;;;9.63;;
31087;SDS011;17745;55.914;37.554;2023-02-11T13:20:58;20.98;;;10.38;;
31087;SDS011;17745;55.914;37.554;2023-02-11T13:23:48;23.40;;;10.85;;
31087;SDS011;17745;55.914;37.554;2023-02-11T13:26:32;16.42;;;8.38;;
31087;SDS011;17745;55.914;37.554;2023-02-11T13:29:21;21.77;;;10.07;;
31087;SDS011;17745;55.914;37.554;2023-02-11T13:32:04;25.35;;;10.70;;
31087;SDS011;17745;55.914;37.554;2023-02-11T13:34:55;30.42;;;12.07;;
31087;SDS011;17745;55.914;37.554;2023-02-11T13:37:30;25.40;;;11.23;;
31087;SDS011;17745;55.914;37.554;2023-02-11T13:40:04;27.20;;;12.25;;
31087;SDS011;17745;55.914;37.554;2023-02-11T13:42:47;21.20;;;11.75;;
31087;SDS011;17745;55.914;37.554;2023-02-11T13:45:23;30.60;;;12.70;;
31087;SDS011;17745;55.914;37.554;2023-02-11T13:47:57;23.38;;;11.57;;
31087;SDS011;17745;55.914;37.554;2023-02-11T13:50:31;24.92;;;12.70;;
31087;SDS011;17745;55.914;37.554;2023-02-11T13:53:08;22.25;;;11.80;;
31087;SDS011;17745;55.914;37.554;2023-02-11T13:55:37;25.50;;;10.98;;
31087;SDS011;17745;55.914;37.554;2023-02-11T13:58:15;25.23;;;11.50;;
31087;SDS011;17745;55.914;37.554;2023-02-11T14:00:47;35.13;;;11.52;;
31087;SDS011;17745;55.914;37.554;2023-02-11T14:03:23;24.60;;;11.45;;
31087;SDS011;17745;55.914;37.554;2023-02-11T14:06:34;23.12;;;10.68;;
31087;SDS011;17745;55.914;37.554;2023-02-11T14:09:37;21.27;;;11.93;;
31087;SDS011;17745;55.914;37.554;2023-02-11T14:12:20;27.10;;;11.10;;
31087;SDS011;17745;55.914;37.554;2023-02-11T14:17:59;22.17;;;11.80;;
31087;SDS011;17745;55.914;37.554;2023-02-11T14:20:32;25.77;;;11.93;;
31087;SDS011;17745;55.914;37.554;2023-02-11T14:23:24;26.17;;;12.75;;
31087;SDS011;17745;55.914;37.554;2023-02-11T14:29:09;24.15;;;12.35;;
31087;SDS011;17745;55.914;37.554;2023-02-11T14:31:44;26.52;;;14.18;;
31087;SDS011;17745;55.914;37.554;2023-02-11T14:34:39;26.52;;;13.30;;
31087;SDS011;17745;55.914;37.554;2023-02-11T14:37:27;22.08;;;11.00;;
31087;SDS011;17745;55.914;37.554;2023-02-11T14:40:17;25.55;;;12.35;;
31087;SDS011;17745;55.914;37.554;2023-02-11T14:43:09;22.65;;;10.98;;
31087;SDS011;17745;55.914;37.554;2023-02-11T14:45:50;26.92;;;12.65;;
31087;SDS011;17745;55.914;37.554;2023-02-11T14:48:26;21.75;;;12.68;;
31087;SDS011;17745;55.914;37.554;2023-02-11T14:51:05;26.83;;;12.25;;
31087;SDS011;17745;55.914;37.554;2023-02-11T14:53:36;27.37;;;12.73;;
31087;SDS011;17745;55.914;37.554;2023-02-11T14:56:19;28.53;;;12.37;;
31087;SDS011;17745;55.914;37.554;2023-02-11T14:59:00;24.17;;;12.65;;
31087;SDS011;17745;55.914;37.554;2023-02-11T15:01:32;34.40;;;14.23;;
31087;SDS011;17745;55.914;37.554;2023-02-11T15:04:26;29.87;;;12.95;;
31087;SDS011;17745;55.914;37.554;2023-02-11T15:07:06;22.42;;;11.80;;
31087;SDS011;17745;55.914;37.554;2023-02-11T15:09:38;28.67;;;13.38;;
31087;SDS011;17745;55.914;37.554;2023-02-11T15:12:18;23.87;;;11.80;;
31087;SDS011;17745;55.914;37.554;2023-02-11T15:15:00;24.17;;;11.20;;
31087;SDS011;17745;55.914;37.554;2023-02-11T15:20:27;24.83;;;11.52;;
31087;SDS011;17745;55.914;37.554;2023-02-11T15:22:58;29.55;;;13.50;;
31087;SDS011;17745;55.914;37.554;2023-02-11T15:25:43;32.08;;;14.38;;
31087;SDS011;17745;55.914;37.554;2023-02-11T15:31:18;19.65;;;9.90;;
31087;SDS011;17745;55.914;37.554;2023-02-11T15:34:08;26.27;;;12.80;;
31087;SDS011;17745;55.914;37.554;2023-02-11T15:36:44;24.73;;;11.38;;
31087;SDS011;17745;55.914;37.554;2023-02-11T15:39:17;29.48;;;12.80;;
31087;SDS011;17745;55.914;37.554;2023-02-11T15:41:53;23.90;;;13.00;;
31087;SDS011;17745;55.914;37.554;2023-02-11T15:44:28;30.42;;;13.60;;
31087;SDS011;17745;55.914;37.554;2023-02-11T15:46:59;30.27;;;13.20;;
31087;SDS011;17745;55.914;37.554;2023-02-11T15:49:34;27.98;;;13.02;;
31087;SDS011;17745;55.914;37.554;2023-02-11T15:52:11;29.23;;;11.38;;
31087;SDS011;17745;55.914;37.554;2023-02-11T15:54:45;26.83;;;11.70;;
31087;SDS011;17745;55.914;37.554;2023-02-11T15:57:20;24.77;;;12.40;;
31087;SDS011;17745;55.914;37.554;2023-02-11T15:59:54;18.23;;;10.43;;
31087;SDS011;17745;55.914;37.554;2023-02-11T16:02:37;20.70;;;10.50;;
31087;SDS011;17745;55.914;37.554;2023-02-11T16:08:17;16.62;;;7.18;;
31087;SDS011;17745;55.914;37.554;2023-02-11T16:11:18;27.02;;;12.07;;